Kezdőlap
METAR-TAF:

METAR-TAF

Repülőterek :

Malindi, Kenya

földrajzi szélesség: 03-14S, földrajzi hosszúság: 040-06E, magasság: 20 m

Jelenlegi meteorológiai megfigyelések

A jelentés 55 perccel ezelõtt készült, 13:00 UTC
Keleti szél 15 kt
Hőmérséklet 31°C
Páratartalom 63%
Légköri nyomás 1007 hPa
Látótávolság 10 km, vagy több
Kevés felhő 2500 lábon
Szakadozott felhőzet 26000 lábon

METAR: HKML 241300Z 08015KT 9999 FEW025 BKN260 31/23 Q1007

Idő: 16:55 (13:55 UTC)


TAF: hiányzik

Meteorológiai megfigyelések és előrejelzések több, mint 4000 repülőtéren (METAR és TAF jelentéseket).

A térképen piros és sárga pontok jelzik az elérhető meteorológiai állomásokat.

Mozgassa az egeret a pont fölött, hogy megjelenjen az állomás neve.

Azután kattintson az időjárási megfigyelések és előrejelzések megtekintéséhez.

A térkép megváltoztatása: kattintson a fekete keresztel jelölt zöld gombra ráközelítéshez, a vonallal jelölt zöld gombra távolításhoz, vagy a zöld nyilakra a szomszédos térképek eléréséhez.


METAR-TAF: